createdAt,value
2018-08-31T00:00:27.662Z,994.75
2018-08-31T00:01:27.657Z,994.8
2018-08-31T00:02:27.655Z,994.75
2018-08-31T00:03:27.658Z,994.74
2018-08-31T00:04:27.657Z,994.75
2018-08-31T00:05:27.665Z,994.71
2018-08-31T00:06:27.657Z,994.7
2018-08-31T00:07:27.657Z,994.68
2018-08-31T00:08:27.658Z,994.7
2018-08-31T00:09:27.669Z,994.65
2018-08-31T00:10:27.725Z,994.68
2018-08-31T00:11:27.661Z,994.7
2018-08-31T00:12:27.665Z,994.69
2018-08-31T00:13:27.661Z,994.7
2018-08-31T00:14:27.658Z,994.68
2018-08-31T00:15:27.663Z,994.69
2018-08-31T00:16:27.665Z,994.73
2018-08-31T00:17:27.660Z,994.67
2018-08-31T00:18:27.662Z,994.64
2018-08-31T00:19:27.662Z,994.65
2018-08-31T00:20:27.662Z,994.61
2018-08-31T00:21:27.663Z,994.59
2018-08-31T00:22:27.663Z,994.53
2018-08-31T00:23:27.666Z,994.53
2018-08-31T00:24:27.664Z,994.52
2018-08-31T00:25:27.701Z,994.57
2018-08-31T00:26:27.668Z,994.5
2018-08-31T00:27:27.678Z,994.53
2018-08-31T00:28:27.667Z,994.5
2018-08-31T00:29:27.669Z,994.53
2018-08-31T00:30:27.669Z,994.48
2018-08-31T00:31:27.672Z,994.51
2018-08-31T00:32:27.671Z,994.53
2018-08-31T00:33:27.667Z,994.56
2018-08-31T00:34:27.670Z,994.56
2018-08-31T00:35:27.672Z,994.56
2018-08-31T00:36:27.669Z,994.53
2018-08-31T00:37:27.677Z,994.55
2018-08-31T00:38:27.672Z,994.53
2018-08-31T00:39:27.674Z,994.52
2018-08-31T00:40:27.768Z,994.53
2018-08-31T00:41:27.685Z,994.53
2018-08-31T00:42:27.678Z,994.57
2018-08-31T00:43:27.675Z,994.55
2018-08-31T00:44:27.676Z,994.55
2018-08-31T00:45:27.683Z,994.56
2018-08-31T00:46:27.676Z,994.55
2018-08-31T00:47:27.675Z,994.52
2018-08-31T00:48:27.675Z,994.53
2018-08-31T00:49:27.681Z,994.53
2018-08-31T00:50:27.698Z,994.51
2018-08-31T00:51:27.675Z,994.51
2018-08-31T00:52:27.674Z,994.48
2018-08-31T00:53:27.676Z,994.49
2018-08-31T00:54:27.676Z,994.51
2018-08-31T00:55:27.682Z,994.45
2018-08-31T00:56:27.698Z,994.47
2018-08-31T00:57:27.677Z,994.44
2018-08-31T00:58:27.680Z,994.45
2018-08-31T00:59:27.693Z,994.51
2018-08-31T01:00:27.706Z,994.46
2018-08-31T01:01:27.784Z,994.45
2018-08-31T01:02:27.676Z,994.47
2018-08-31T01:03:27.679Z,994.38
2018-08-31T01:04:27.684Z,994.42
2018-08-31T01:05:27.679Z,994.42
2018-08-31T01:06:27.682Z,994.42
2018-08-31T01:07:27.681Z,994.43
2018-08-31T01:08:27.679Z,994.43
2018-08-31T01:09:27.678Z,994.4
2018-08-31T01:10:27.719Z,994.44
2018-08-31T01:11:27.682Z,994.45
2018-08-31T01:12:27.680Z,994.46
2018-08-31T01:13:27.680Z,994.47
2018-08-31T01:14:27.683Z,994.5
2018-08-31T01:15:27.684Z,994.47
2018-08-31T01:16:27.684Z,994.48
2018-08-31T01:17:27.694Z,994.44
2018-08-31T01:18:27.693Z,994.4
2018-08-31T01:19:27.684Z,994.45
2018-08-31T01:20:27.686Z,994.46
2018-08-31T01:21:27.739Z,994.42
2018-08-31T01:22:27.767Z,994.44
2018-08-31T01:23:27.686Z,994.48
2018-08-31T01:24:27.688Z,994.46
2018-08-31T01:25:27.688Z,994.45
2018-08-31T01:26:27.685Z,994.46
2018-08-31T01:27:27.688Z,994.47
2018-08-31T01:28:27.686Z,994.44
2018-08-31T01:29:27.704Z,994.44
2018-08-31T01:30:27.702Z,994.39
2018-08-31T01:31:27.691Z,994.38
2018-08-31T01:32:27.691Z,994.38
2018-08-31T01:33:27.698Z,994.37
2018-08-31T01:34:27.689Z,994.39
2018-08-31T01:35:27.726Z,994.34
2018-08-31T01:36:27.691Z,994.32
2018-08-31T01:37:27.683Z,994.33
2018-08-31T01:38:27.680Z,994.36
2018-08-31T01:39:27.690Z,994.33
2018-08-31T01:40:27.685Z,994.32
2018-08-31T01:41:27.682Z,994.36
2018-08-31T01:42:27.723Z,994.37
2018-08-31T01:43:27.684Z,994.37
2018-08-31T01:44:27.687Z,994.37
2018-08-31T01:45:27.732Z,994.45
2018-08-31T01:46:27.684Z,994.45
2018-08-31T01:47:27.679Z,994.43
2018-08-31T01:48:27.680Z,994.45
2018-08-31T01:49:27.682Z,994.44
2018-08-31T01:50:27.681Z,994.44
2018-08-31T01:51:27.686Z,994.42
2018-08-31T01:52:27.684Z,994.45
2018-08-31T01:53:27.688Z,994.41
2018-08-31T01:54:27.682Z,994.4
2018-08-31T01:55:27.680Z,994.39
2018-08-31T01:56:27.682Z,994.34
2018-08-31T01:57:27.683Z,994.39
2018-08-31T01:58:27.679Z,994.36
2018-08-31T01:59:27.683Z,994.34
2018-08-31T02:00:27.683Z,994.37
2018-08-31T02:01:27.682Z,994.29
2018-08-31T02:02:27.686Z,994.34
2018-08-31T02:03:27.684Z,994.3
2018-08-31T02:04:27.687Z,994.31
2018-08-31T02:05:27.681Z,994.28
2018-08-31T02:06:27.684Z,994.25
2018-08-31T02:07:27.681Z,994.26
2018-08-31T02:08:27.685Z,994.21
2018-08-31T02:09:27.691Z,994.22
2018-08-31T02:10:27.686Z,994.18
2018-08-31T02:11:27.681Z,994.21
2018-08-31T02:12:27.685Z,994.17
2018-08-31T02:13:27.683Z,994.2
2018-08-31T02:14:27.689Z,994.17
2018-08-31T02:15:27.684Z,994.17
2018-08-31T02:16:27.684Z,994.12
2018-08-31T02:17:27.685Z,994.1
2018-08-31T02:18:27.683Z,994.08
2018-08-31T02:19:27.689Z,994.03
2018-08-31T02:20:27.682Z,993.98
2018-08-31T02:21:27.686Z,994.02
2018-08-31T02:22:27.688Z,993.95
2018-08-31T02:23:27.690Z,993.93
2018-08-31T02:24:27.685Z,993.95
2018-08-31T02:25:27.686Z,993.92
2018-08-31T02:26:27.685Z,993.91
2018-08-31T02:27:27.684Z,993.88
2018-08-31T02:28:27.685Z,993.85
2018-08-31T02:29:27.687Z,993.86
2018-08-31T02:30:27.683Z,993.82
2018-08-31T02:31:27.689Z,993.8
2018-08-31T02:32:28.788Z,993.85
2018-08-31T02:33:27.685Z,993.87
2018-08-31T02:34:27.684Z,993.79
2018-08-31T02:35:27.703Z,993.78
2018-08-31T02:36:27.687Z,993.79
2018-08-31T02:37:27.684Z,993.76
2018-08-31T02:38:27.687Z,993.78
2018-08-31T02:39:27.698Z,993.73
2018-08-31T02:40:27.685Z,993.75
2018-08-31T02:41:27.685Z,993.74
2018-08-31T02:42:27.684Z,993.72
2018-08-31T02:43:27.690Z,993.74
2018-08-31T02:44:27.688Z,993.71
2018-08-31T02:45:27.685Z,993.66
2018-08-31T02:46:27.686Z,993.65
2018-08-31T02:47:27.688Z,993.63
2018-08-31T02:48:27.697Z,993.63
2018-08-31T02:49:27.686Z,993.6
2018-08-31T02:50:27.760Z,993.62
2018-08-31T02:51:27.685Z,993.6
2018-08-31T02:52:27.684Z,993.6
2018-08-31T02:53:27.685Z,993.6
2018-08-31T02:54:27.691Z,993.56
2018-08-31T02:55:27.683Z,993.54
2018-08-31T02:56:27.688Z,993.47
2018-08-31T02:57:27.685Z,993.52
2018-08-31T02:58:27.686Z,993.46
2018-08-31T02:59:27.689Z,993.44
2018-08-31T03:00:27.684Z,993.44
2018-08-31T03:01:27.685Z,993.48
2018-08-31T03:02:27.686Z,993.47
2018-08-31T03:03:27.682Z,993.45
2018-08-31T03:04:27.684Z,993.41
2018-08-31T03:05:27.684Z,993.4
2018-08-31T03:06:27.683Z,993.43
2018-08-31T03:07:27.686Z,993.43
2018-08-31T03:08:27.692Z,993.46
2018-08-31T03:09:27.687Z,993.48
2018-08-31T03:10:27.698Z,993.47
2018-08-31T03:11:27.702Z,993.48
2018-08-31T03:12:27.698Z,993.51
2018-08-31T03:13:27.685Z,993.52
2018-08-31T03:14:27.683Z,993.54
2018-08-31T03:15:27.682Z,993.58
2018-08-31T03:16:27.691Z,993.61
2018-08-31T03:17:27.680Z,993.65
2018-08-31T03:18:27.688Z,993.6
2018-08-31T03:19:27.680Z,993.65
2018-08-31T03:20:27.717Z,993.63
2018-08-31T03:21:27.750Z,993.65
2018-08-31T03:22:27.681Z,993.66
2018-08-31T03:23:27.684Z,993.68
2018-08-31T03:24:27.683Z,993.67
2018-08-31T03:25:27.766Z,993.68
2018-08-31T03:26:27.684Z,993.69
2018-08-31T03:27:27.685Z,993.67
2018-08-31T03:28:27.682Z,993.68
2018-08-31T03:29:27.687Z,993.71
2018-08-31T03:30:27.694Z,993.77
2018-08-31T03:31:27.689Z,993.75
2018-08-31T03:32:27.690Z,993.73
2018-08-31T03:33:27.686Z,993.73
2018-08-31T03:34:27.690Z,993.72
2018-08-31T03:35:27.688Z,993.74
2018-08-31T03:36:27.689Z,993.71
2018-08-31T03:37:27.678Z,993.7
2018-08-31T03:38:27.681Z,993.73
2018-08-31T03:39:27.681Z,993.7
2018-08-31T03:40:27.676Z,993.69
2018-08-31T03:41:27.693Z,993.67
2018-08-31T03:42:27.680Z,993.7
2018-08-31T03:43:27.674Z,993.67
2018-08-31T03:44:27.677Z,993.68
2018-08-31T03:45:27.676Z,993.66
2018-08-31T03:46:27.688Z,993.63
2018-08-31T03:47:27.677Z,993.67
2018-08-31T03:48:27.680Z,993.64
2018-08-31T03:49:27.677Z,993.64
2018-08-31T03:50:27.674Z,993.59
2018-08-31T03:51:27.673Z,993.6
2018-08-31T03:52:27.674Z,993.61
2018-08-31T03:53:27.672Z,993.62
2018-08-31T03:54:27.680Z,993.59
2018-08-31T03:55:27.674Z,993.61
2018-08-31T03:56:27.679Z,993.6
2018-08-31T03:57:27.671Z,993.56
2018-08-31T03:58:27.683Z,993.57
2018-08-31T03:59:27.674Z,993.52
2018-08-31T04:00:27.672Z,993.47
2018-08-31T04:01:27.681Z,993.5
2018-08-31T04:02:27.671Z,993.48
2018-08-31T04:03:27.672Z,993.47
2018-08-31T04:04:27.671Z,993.51
2018-08-31T04:05:27.672Z,993.49
2018-08-31T04:06:27.674Z,993.51
2018-08-31T04:07:27.671Z,993.51
2018-08-31T04:08:27.672Z,993.5
2018-08-31T04:09:27.668Z,993.55
2018-08-31T04:10:27.672Z,993.59
2018-08-31T04:11:27.670Z,993.58
2018-08-31T04:12:27.670Z,993.59
2018-08-31T04:13:27.671Z,993.62
2018-08-31T04:14:27.670Z,993.6
2018-08-31T04:15:27.670Z,993.61
2018-08-31T04:16:27.668Z,993.66
2018-08-31T04:17:27.671Z,993.65
2018-08-31T04:18:27.720Z,993.65
2018-08-31T04:19:27.667Z,993.65
2018-08-31T04:20:27.666Z,993.62
2018-08-31T04:21:27.667Z,993.61
2018-08-31T04:22:27.681Z,993.6
2018-08-31T04:23:28.468Z,993.61
2018-08-31T04:24:27.665Z,993.62
2018-08-31T04:25:27.668Z,993.61
2018-08-31T04:26:27.667Z,993.58
2018-08-31T04:27:27.664Z,993.61
2018-08-31T04:28:27.672Z,993.6
2018-08-31T04:29:27.665Z,993.65
2018-08-31T04:30:27.665Z,993.62
2018-08-31T04:31:27.670Z,993.6
2018-08-31T04:32:27.665Z,993.63
2018-08-31T04:33:27.666Z,993.59
2018-08-31T04:34:27.663Z,993.56
2018-08-31T04:35:27.667Z,993.56
2018-08-31T04:36:27.665Z,993.53
2018-08-31T04:37:27.664Z,993.54
2018-08-31T04:38:27.662Z,993.53
2018-08-31T04:39:27.665Z,993.54
2018-08-31T04:40:27.665Z,993.52
2018-08-31T04:41:27.668Z,993.53
2018-08-31T04:42:27.664Z,993.53
2018-08-31T04:43:27.666Z,993.53
2018-08-31T04:44:27.677Z,993.51
2018-08-31T04:45:27.664Z,993.5
2018-08-31T04:46:27.664Z,993.53
2018-08-31T04:47:27.668Z,993.54
2018-08-31T04:48:27.669Z,993.57
2018-08-31T04:49:27.663Z,993.59
2018-08-31T04:50:27.779Z,993.62
2018-08-31T04:51:27.663Z,993.63
2018-08-31T04:52:27.664Z,993.61
2018-08-31T04:53:27.669Z,993.57
2018-08-31T04:54:27.665Z,993.58
2018-08-31T04:55:27.683Z,993.57
2018-08-31T04:56:27.665Z,993.52
2018-08-31T04:57:27.677Z,993.53
2018-08-31T04:58:27.664Z,993.55
2018-08-31T04:59:27.658Z,993.57
2018-08-31T05:00:27.675Z,993.56
2018-08-31T05:01:27.661Z,993.57
2018-08-31T05:02:27.663Z,993.59
2018-08-31T05:03:27.660Z,993.52
2018-08-31T05:04:27.663Z,993.57
2018-08-31T05:05:27.661Z,993.5
2018-08-31T05:06:27.664Z,993.55
2018-08-31T05:07:27.659Z,993.53
2018-08-31T05:08:27.667Z,993.51
2018-08-31T05:09:27.664Z,993.51
2018-08-31T05:10:27.664Z,993.52
2018-08-31T05:11:27.662Z,993.52
2018-08-31T05:12:27.664Z,993.51
2018-08-31T05:13:27.669Z,993.47
2018-08-31T05:14:27.658Z,993.43
2018-08-31T05:15:27.664Z,993.43
2018-08-31T05:16:27.660Z,993.45
2018-08-31T05:17:27.659Z,993.43
2018-08-31T05:18:27.682Z,993.4
2018-08-31T05:19:27.664Z,993.37
2018-08-31T05:20:27.660Z,993.37
2018-08-31T05:21:27.672Z,993.4
2018-08-31T05:22:27.705Z,993.37
2018-08-31T05:23:27.662Z,993.37
2018-08-31T05:24:27.658Z,993.36
2018-08-31T05:25:27.659Z,993.42
2018-08-31T05:26:27.657Z,993.41
2018-08-31T05:27:27.660Z,993.42
2018-08-31T05:28:27.744Z,993.44
2018-08-31T05:29:27.660Z,993.39
2018-08-31T05:30:27.711Z,993.4
2018-08-31T05:31:27.662Z,993.39
2018-08-31T05:32:27.678Z,993.37
2018-08-31T05:33:27.657Z,993.38
2018-08-31T05:34:27.660Z,993.4
2018-08-31T05:35:27.681Z,993.36
2018-08-31T05:36:27.655Z,993.43
2018-08-31T05:37:27.656Z,993.35
2018-08-31T05:38:27.659Z,993.36
2018-08-31T05:39:27.655Z,993.38
2018-08-31T05:40:27.656Z,993.43
2018-08-31T05:41:27.664Z,993.47
2018-08-31T05:42:27.655Z,993.47
2018-08-31T05:43:27.655Z,993.48
2018-08-31T05:44:27.655Z,993.48
2018-08-31T05:45:27.656Z,993.49
2018-08-31T05:46:27.657Z,993.47
2018-08-31T05:47:27.667Z,993.46
2018-08-31T05:48:27.657Z,993.45
2018-08-31T05:49:27.657Z,993.41
2018-08-31T05:50:27.696Z,993.42
2018-08-31T05:51:27.653Z,993.43
2018-08-31T05:52:27.653Z,993.44
2018-08-31T05:53:27.681Z,993.4
2018-08-31T05:54:27.652Z,993.43
2018-08-31T05:55:27.655Z,993.45
2018-08-31T05:56:27.656Z,993.42
2018-08-31T05:57:27.652Z,993.42
2018-08-31T05:58:27.653Z,993.47
2018-08-31T05:59:28.456Z,993.46
2018-08-31T06:00:27.654Z,993.46
2018-08-31T06:01:27.653Z,993.49
2018-08-31T06:02:27.655Z,993.5
2018-08-31T06:03:27.658Z,993.51
2018-08-31T06:04:27.655Z,993.52
2018-08-31T06:05:27.658Z,993.51
2018-08-31T06:06:27.651Z,993.49
2018-08-31T06:07:27.651Z,993.52
2018-08-31T06:08:27.658Z,993.51
2018-08-31T06:09:27.653Z,993.51
2018-08-31T06:10:27.650Z,993.48
2018-08-31T06:11:27.654Z,993.49
2018-08-31T06:12:27.650Z,993.51
2018-08-31T06:13:27.655Z,993.47
2018-08-31T06:14:27.652Z,993.48
2018-08-31T06:15:27.694Z,993.53
2018-08-31T06:16:27.658Z,993.51
2018-08-31T06:17:27.652Z,993.54
2018-08-31T06:18:27.657Z,993.55
2018-08-31T06:19:27.657Z,993.52
2018-08-31T06:20:27.663Z,993.58
2018-08-31T06:21:27.662Z,993.58
2018-08-31T06:22:27.663Z,993.59
2018-08-31T06:23:27.650Z,993.61
2018-08-31T06:24:27.660Z,993.63
2018-08-31T06:25:27.652Z,993.62
2018-08-31T06:26:27.652Z,993.66
2018-08-31T06:27:27.648Z,993.64
2018-08-31T06:28:27.651Z,993.64
2018-08-31T06:29:27.652Z,993.65
2018-08-31T06:30:27.660Z,993.64
2018-08-31T06:31:27.645Z,993.66
2018-08-31T06:32:27.704Z,993.67
2018-08-31T06:33:27.647Z,993.65
2018-08-31T06:34:27.655Z,993.66
2018-08-31T06:35:27.646Z,993.67
2018-08-31T06:36:27.647Z,993.72
2018-08-31T06:37:27.653Z,993.7
2018-08-31T06:38:27.646Z,993.71
2018-08-31T06:39:27.647Z,993.77
2018-08-31T06:40:27.647Z,993.77
2018-08-31T06:41:27.649Z,993.73
2018-08-31T06:42:27.649Z,993.77
2018-08-31T06:43:27.650Z,993.76
2018-08-31T06:44:27.646Z,993.82
2018-08-31T06:45:27.644Z,993.81
2018-08-31T06:46:27.646Z,993.83
2018-08-31T06:47:27.648Z,993.83
2018-08-31T06:48:27.654Z,993.83
2018-08-31T06:49:27.649Z,993.83
2018-08-31T06:50:27.645Z,993.8
2018-08-31T06:51:27.661Z,993.84
2018-08-31T06:52:27.646Z,993.81
2018-08-31T06:53:27.643Z,993.84
2018-08-31T06:54:27.644Z,993.79
2018-08-31T06:55:27.646Z,993.84
2018-08-31T06:56:27.643Z,993.8
2018-08-31T06:57:27.643Z,993.8
2018-08-31T06:58:27.643Z,993.81
2018-08-31T06:59:27.643Z,993.81
2018-08-31T07:00:27.652Z,993.82
2018-08-31T07:01:27.640Z,993.81
2018-08-31T07:02:27.645Z,993.82
2018-08-31T07:03:27.642Z,993.82
2018-08-31T07:04:27.692Z,993.81
2018-08-31T07:05:27.645Z,993.86
2018-08-31T07:06:27.647Z,993.88
2018-08-31T07:07:27.645Z,993.87
2018-08-31T07:08:27.648Z,993.85
2018-08-31T07:09:27.642Z,993.84
2018-08-31T07:10:27.642Z,993.86
2018-08-31T07:11:27.640Z,993.86
2018-08-31T07:12:27.744Z,993.86
2018-08-31T07:13:27.638Z,993.9
2018-08-31T07:14:27.638Z,993.88
2018-08-31T07:15:27.648Z,993.86
2018-08-31T07:16:27.641Z,993.87
2018-08-31T07:17:27.650Z,993.88
2018-08-31T07:18:27.690Z,993.9
2018-08-31T07:19:27.737Z,993.89
2018-08-31T07:20:27.649Z,993.92
2018-08-31T07:21:27.647Z,993.95
2018-08-31T07:22:27.636Z,993.93
2018-08-31T07:23:27.647Z,993.94
2018-08-31T07:24:27.638Z,993.93
2018-08-31T07:25:27.747Z,993.95
2018-08-31T07:26:27.745Z,993.91
2018-08-31T07:27:27.639Z,993.96
2018-08-31T07:28:27.637Z,993.94
2018-08-31T07:29:27.634Z,993.92
2018-08-31T07:30:27.654Z,993.97
2018-08-31T07:31:27.645Z,993.92
2018-08-31T07:32:27.661Z,993.93
2018-08-31T07:33:27.635Z,994.01
2018-08-31T07:34:27.644Z,993.98
2018-08-31T07:35:27.702Z,993.98
2018-08-31T07:36:27.824Z,993.98
2018-08-31T07:37:27.646Z,993.97
2018-08-31T07:38:27.632Z,993.95
2018-08-31T07:39:27.634Z,993.94
2018-08-31T07:40:27.632Z,993.95
2018-08-31T07:41:27.632Z,993.99
2018-08-31T07:42:27.634Z,993.96
2018-08-31T07:43:27.631Z,993.96
2018-08-31T07:44:27.652Z,993.97
2018-08-31T07:45:27.637Z,993.99
2018-08-31T07:46:27.638Z,994
2018-08-31T07:47:27.631Z,993.99
2018-08-31T07:48:27.642Z,994
2018-08-31T07:49:27.630Z,994.06
2018-08-31T07:50:27.699Z,994
2018-08-31T07:51:27.633Z,993.97
2018-08-31T07:52:27.633Z,994.02
2018-08-31T07:53:27.629Z,994.01
2018-08-31T07:54:27.632Z,994.02
2018-08-31T07:55:27.639Z,994.05
2018-08-31T07:56:27.632Z,994.05
2018-08-31T07:57:27.630Z,994.02
2018-08-31T07:58:27.628Z,993.98
2018-08-31T07:59:27.626Z,994
2018-08-31T08:00:27.635Z,994.01
2018-08-31T08:01:27.632Z,994.06
2018-08-31T08:02:27.630Z,994.03
2018-08-31T08:03:27.626Z,994.03
2018-08-31T08:04:27.629Z,994.03
2018-08-31T08:05:27.635Z,994.07
2018-08-31T08:06:27.624Z,994.1
2018-08-31T08:07:27.708Z,994.09
2018-08-31T08:08:27.627Z,994.11
2018-08-31T08:09:27.630Z,994.12
2018-08-31T08:10:27.686Z,994.1
2018-08-31T08:11:27.629Z,994.11
2018-08-31T08:12:27.627Z,994.15
2018-08-31T08:13:27.630Z,994.1
2018-08-31T08:14:27.627Z,994.16
2018-08-31T08:15:27.620Z,994.15
2018-08-31T08:16:27.617Z,994.17
2018-08-31T08:17:27.618Z,994.21
2018-08-31T08:18:27.829Z,994.16
2018-08-31T08:19:27.617Z,994.21
2018-08-31T08:20:27.622Z,994.15
2018-08-31T08:21:27.618Z,994.16
2018-08-31T08:22:27.635Z,994.16
2018-08-31T08:23:27.613Z,994.19
2018-08-31T08:24:27.615Z,994.21
2018-08-31T08:25:27.651Z,994.21
2018-08-31T08:26:27.610Z,994.2
2018-08-31T08:27:27.610Z,994.21
2018-08-31T08:28:27.705Z,994.24
2018-08-31T08:29:27.607Z,994.24
2018-08-31T08:30:27.656Z,994.22
2018-08-31T08:31:27.628Z,994.24
2018-08-31T08:32:27.615Z,994.23
2018-08-31T08:33:27.609Z,994.23
2018-08-31T08:34:27.608Z,994.24
2018-08-31T08:35:27.629Z,994.22
2018-08-31T08:36:27.607Z,994.24
2018-08-31T08:37:27.621Z,994.27
2018-08-31T08:38:27.619Z,994.24
2018-08-31T08:39:27.602Z,994.25
2018-08-31T08:40:27.604Z,994.26
2018-08-31T08:41:27.601Z,994.26
2018-08-31T08:42:27.659Z,994.29
2018-08-31T08:43:27.599Z,994.29
2018-08-31T08:44:27.601Z,994.29
2018-08-31T08:45:27.600Z,994.33
2018-08-31T08:46:27.608Z,994.32
2018-08-31T08:47:27.601Z,994.33
2018-08-31T08:48:27.613Z,994.32
2018-08-31T08:49:27.616Z,994.34
2018-08-31T08:50:27.594Z,994.33
2018-08-31T08:51:27.594Z,994.34
2018-08-31T08:52:27.595Z,994.35
2018-08-31T08:53:27.592Z,994.38
2018-08-31T08:54:27.604Z,994.39
2018-08-31T08:55:27.592Z,994.38
2018-08-31T08:56:27.592Z,994.37
2018-08-31T08:57:27.601Z,994.38
2018-08-31T08:58:27.593Z,994.41
2018-08-31T08:59:27.592Z,994.41
2018-08-31T09:00:27.589Z,994.43
2018-08-31T09:01:27.589Z,994.42
2018-08-31T09:02:27.588Z,994.42
2018-08-31T09:03:27.591Z,994.42
2018-08-31T09:04:27.589Z,994.41
2018-08-31T09:05:27.693Z,994.45
2018-08-31T09:06:27.586Z,994.46
2018-08-31T09:07:27.604Z,994.46
2018-08-31T09:08:27.583Z,994.48
2018-08-31T09:09:27.581Z,994.48
2018-08-31T09:10:27.641Z,994.47
2018-08-31T09:11:27.582Z,994.5
2018-08-31T09:12:27.625Z,994.48
2018-08-31T09:13:27.582Z,994.44
2018-08-31T09:14:27.593Z,994.46
2018-08-31T09:15:27.652Z,994.5
2018-08-31T09:16:27.578Z,994.46
2018-08-31T09:17:27.581Z,994.48
2018-08-31T09:18:27.664Z,994.45
2018-08-31T09:19:27.573Z,994.43
2018-08-31T09:20:27.649Z,994.46
2018-08-31T09:21:27.575Z,994.42
2018-08-31T09:22:27.576Z,994.44
2018-08-31T09:23:27.575Z,994.45
2018-08-31T09:24:27.607Z,994.46
2018-08-31T09:25:27.641Z,994.48
2018-08-31T09:26:27.576Z,994.51
2018-08-31T09:27:27.608Z,994.5
2018-08-31T09:28:27.570Z,994.48
2018-08-31T09:29:27.576Z,994.48
2018-08-31T09:30:27.580Z,994.49
2018-08-31T09:31:27.573Z,994.47
2018-08-31T09:32:27.600Z,994.45
2018-08-31T09:33:27.570Z,994.46
2018-08-31T09:34:27.579Z,994.46
2018-08-31T09:35:27.569Z,994.47
2018-08-31T09:36:27.570Z,994.49
2018-08-31T09:37:27.579Z,994.52
2018-08-31T09:38:27.670Z,994.5
2018-08-31T09:39:27.581Z,994.5
2018-08-31T09:40:27.572Z,994.5
2018-08-31T09:41:27.578Z,994.46
2018-08-31T09:42:27.593Z,994.52
2018-08-31T09:43:27.569Z,994.48
2018-08-31T09:44:27.568Z,994.4
2018-08-31T09:45:27.571Z,994.44
2018-08-31T09:46:27.571Z,994.44
2018-08-31T09:47:27.570Z,994.38
2018-08-31T09:48:27.569Z,994.4
2018-08-31T09:49:27.594Z,994.41
2018-08-31T09:50:27.570Z,994.43
2018-08-31T09:51:27.566Z,994.39
2018-08-31T09:52:27.566Z,994.4
2018-08-31T09:53:27.575Z,994.39
2018-08-31T09:54:27.568Z,994.47
2018-08-31T09:55:27.567Z,994.45
2018-08-31T09:56:27.569Z,994.47
2018-08-31T09:57:27.616Z,994.48
2018-08-31T09:58:27.566Z,994.51
2018-08-31T09:59:27.566Z,994.49
2018-08-31T10:00:27.566Z,994.53
2018-08-31T10:01:27.568Z,994.57
2018-08-31T10:02:27.564Z,994.57
2018-08-31T10:03:27.567Z,994.53
2018-08-31T10:04:27.565Z,994.52
2018-08-31T10:05:27.592Z,994.48
2018-08-31T10:06:27.571Z,994.52
2018-08-31T10:07:27.566Z,994.51
2018-08-31T10:08:27.576Z,994.51
2018-08-31T10:09:27.571Z,994.52
2018-08-31T10:10:27.630Z,994.5
2018-08-31T10:11:27.571Z,994.49
2018-08-31T10:12:27.566Z,994.57
2018-08-31T10:13:27.676Z,994.54
2018-08-31T10:14:27.567Z,994.57
2018-08-31T10:15:27.563Z,994.55
2018-08-31T10:16:27.566Z,994.55
2018-08-31T10:17:27.562Z,994.52
2018-08-31T10:18:27.570Z,994.53
2018-08-31T10:19:27.563Z,994.52
2018-08-31T10:20:27.637Z,994.54
2018-08-31T10:21:27.565Z,994.56
2018-08-31T10:22:27.561Z,994.52
2018-08-31T10:23:27.564Z,994.52
2018-08-31T10:24:27.561Z,994.53
2018-08-31T10:25:27.563Z,994.59
2018-08-31T10:26:27.561Z,994.56
2018-08-31T10:27:27.562Z,994.58
2018-08-31T10:28:27.560Z,994.54
2018-08-31T10:29:27.559Z,994.5
2018-08-31T10:30:27.630Z,994.53
2018-08-31T10:31:27.559Z,994.5
2018-08-31T10:32:27.557Z,994.51
2018-08-31T10:33:27.559Z,994.51
2018-08-31T10:34:27.556Z,994.49
2018-08-31T10:35:27.559Z,994.5
2018-08-31T10:36:27.557Z,994.51
2018-08-31T10:37:27.557Z,994.49
2018-08-31T10:38:27.556Z,994.48
2018-08-31T10:39:27.563Z,994.53
2018-08-31T10:40:27.557Z,994.52
2018-08-31T10:41:27.555Z,994.56
2018-08-31T10:42:27.555Z,994.55
2018-08-31T10:43:27.560Z,994.52
2018-08-31T10:44:27.557Z,994.52
2018-08-31T10:45:27.626Z,994.53
2018-08-31T10:46:27.623Z,994.49
2018-08-31T10:47:27.561Z,994.53
2018-08-31T10:48:27.566Z,994.51
2018-08-31T10:49:27.553Z,994.5
2018-08-31T10:50:27.571Z,994.48
2018-08-31T10:51:27.553Z,994.46
2018-08-31T10:52:27.552Z,994.46
2018-08-31T10:53:27.553Z,994.45
2018-08-31T10:54:27.549Z,994.44
2018-08-31T10:55:27.619Z,994.45
2018-08-31T10:56:27.558Z,994.48
2018-08-31T10:57:27.553Z,994.48
2018-08-31T10:58:27.552Z,994.49
2018-08-31T10:59:27.562Z,994.52
2018-08-31T11:00:27.639Z,994.55
2018-08-31T11:01:27.552Z,994.52
2018-08-31T11:02:27.561Z,994.48
2018-08-31T11:03:27.557Z,994.55
2018-08-31T11:04:27.554Z,994.52
2018-08-31T11:05:27.554Z,994.54
2018-08-31T11:06:27.551Z,994.58
2018-08-31T11:07:27.557Z,994.56
2018-08-31T11:08:27.552Z,994.51
2018-08-31T11:09:27.572Z,994.57
2018-08-31T11:10:27.596Z,994.58
2018-08-31T11:11:27.554Z,994.59
2018-08-31T11:12:27.607Z,994.57
2018-08-31T11:13:27.551Z,994.55
2018-08-31T11:14:27.551Z,994.56
2018-08-31T11:15:27.554Z,994.58
2018-08-31T11:16:27.550Z,994.56
2018-08-31T11:17:27.558Z,994.54
2018-08-31T11:18:27.553Z,994.57
2018-08-31T11:19:27.553Z,994.55
2018-08-31T11:20:27.567Z,994.56
2018-08-31T11:21:27.551Z,994.65
2018-08-31T11:22:27.557Z,994.58
2018-08-31T11:23:27.555Z,994.61
2018-08-31T11:24:27.554Z,994.6
2018-08-31T11:25:27.556Z,994.58
2018-08-31T11:26:27.554Z,994.6
2018-08-31T11:27:27.554Z,994.6
2018-08-31T11:28:27.556Z,994.62
2018-08-31T11:29:27.557Z,994.64
2018-08-31T11:30:27.602Z,994.63
2018-08-31T11:31:27.556Z,994.61
2018-08-31T11:32:27.556Z,994.62
2018-08-31T11:33:27.557Z,994.65
2018-08-31T11:34:27.560Z,994.63
2018-08-31T11:35:27.636Z,994.58
2018-08-31T11:36:27.561Z,994.62
2018-08-31T11:37:27.561Z,994.64
2018-08-31T11:38:27.559Z,994.62
2018-08-31T11:39:27.621Z,994.63
2018-08-31T11:40:27.650Z,994.62
2018-08-31T11:41:27.556Z,994.61
2018-08-31T11:42:27.566Z,994.67
2018-08-31T11:43:27.587Z,994.68
2018-08-31T11:44:27.562Z,994.71
2018-08-31T11:45:27.645Z,994.65
2018-08-31T11:46:27.563Z,994.68
2018-08-31T11:47:27.562Z,994.67
2018-08-31T11:48:27.560Z,994.67
2018-08-31T11:49:27.562Z,994.71
2018-08-31T11:50:27.581Z,994.71
2018-08-31T11:51:27.563Z,994.73
2018-08-31T11:52:27.562Z,994.71
2018-08-31T11:53:27.590Z,994.7
2018-08-31T11:54:27.565Z,994.65
2018-08-31T11:55:27.611Z,994.64
2018-08-31T11:56:27.566Z,994.61
2018-08-31T11:57:27.600Z,994.62
2018-08-31T11:58:27.565Z,994.59
2018-08-31T11:59:27.564Z,994.6
2018-08-31T12:00:27.667Z,994.62
2018-08-31T12:01:27.733Z,994.65
2018-08-31T12:02:27.569Z,994.65
2018-08-31T12:03:27.569Z,994.67
2018-08-31T12:04:27.566Z,994.61
2018-08-31T12:05:27.569Z,994.59
2018-08-31T12:06:27.570Z,994.64
2018-08-31T12:07:27.573Z,994.65
2018-08-31T12:08:27.589Z,994.6
2018-08-31T12:09:27.572Z,994.59
2018-08-31T12:10:27.652Z,994.56
2018-08-31T12:11:27.573Z,994.54
2018-08-31T12:12:27.574Z,994.6
2018-08-31T12:13:27.574Z,994.59
2018-08-31T12:14:27.578Z,994.56
2018-08-31T12:15:27.572Z,994.56
2018-08-31T12:16:27.576Z,994.59
2018-08-31T12:17:27.577Z,994.56
2018-08-31T12:18:27.576Z,994.55
2018-08-31T12:19:27.575Z,994.57
2018-08-31T12:20:27.576Z,994.58
2018-08-31T12:21:27.576Z,994.51
2018-08-31T12:22:27.583Z,994.54
2018-08-31T12:23:27.603Z,994.54
2018-08-31T12:24:27.580Z,994.53
2018-08-31T12:25:27.653Z,994.55
2018-08-31T12:26:27.583Z,994.55
2018-08-31T12:27:27.582Z,994.54
2018-08-31T12:28:27.583Z,994.54
2018-08-31T12:29:27.587Z,994.57
2018-08-31T12:30:27.691Z,994.53
2018-08-31T12:31:27.586Z,994.54